createdAt,value
2022-07-25T00:00:28.412Z,59.83
2022-07-25T00:01:48.953Z,59.94
2022-07-25T00:03:05.367Z,59.83
2022-07-25T00:04:25.855Z,59.83
2022-07-25T00:05:42.263Z,59.94
2022-07-25T00:07:00.653Z,59.83
2022-07-25T00:08:17.373Z,59.83
2022-07-25T00:09:33.751Z,59.94
2022-07-25T00:10:50.115Z,59.83
2022-07-25T00:12:06.496Z,59.83
2022-07-25T00:13:23.922Z,59.83
2022-07-25T00:14:40.606Z,59.83
2022-07-25T00:15:57.094Z,59.83
2022-07-25T00:17:15.436Z,59.83
2022-07-25T00:18:31.798Z,59.83
2022-07-25T00:19:50.148Z,59.83
2022-07-25T00:21:06.796Z,59.83
2022-07-25T00:22:23.227Z,59.83
2022-07-25T00:23:39.607Z,59.83
2022-07-25T00:24:55.999Z,59.83
2022-07-25T00:26:14.317Z,59.83
2022-07-25T00:27:31.013Z,59.83
2022-07-25T00:28:47.379Z,59.83
2022-07-25T00:30:03.791Z,59.83
2022-07-25T00:31:20.201Z,59.83
2022-07-25T00:32:36.592Z,59.83
2022-07-25T00:33:53.537Z,59.83
2022-07-25T00:35:09.932Z,59.83
2022-07-25T00:36:26.296Z,59.83
2022-07-25T00:37:42.676Z,59.83
2022-07-25T00:38:59.046Z,59.83
2022-07-25T00:40:15.777Z,59.83
2022-07-25T00:41:32.148Z,59.83
2022-07-25T00:42:48.526Z,59.81
2022-07-25T00:44:05.183Z,59.83
2022-07-25T00:45:21.770Z,59.83
2022-07-25T00:46:38.540Z,59.81
2022-07-25T00:47:54.909Z,59.83
2022-07-25T00:49:13.271Z,59.81
2022-07-25T00:50:31.631Z,59.83
2022-07-25T00:51:48.001Z,59.83
2022-07-25T00:53:04.659Z,59.83
2022-07-25T00:54:21.022Z,59.83
2022-07-25T00:55:39.383Z,59.83
2022-07-25T00:56:55.755Z,59.81
2022-07-25T00:58:12.133Z,59.83
2022-07-25T00:59:28.795Z,59.81
2022-07-25T01:00:45.210Z,59.83
2022-07-25T01:02:03.695Z,59.81
2022-07-25T01:03:20.562Z,59.81
2022-07-25T01:04:36.919Z,59.81
2022-07-25T01:05:54.088Z,59.83
2022-07-25T01:07:10.457Z,59.83
2022-07-25T01:08:28.812Z,59.83
2022-07-25T01:09:45.182Z,59.83
2022-07-25T01:11:01.589Z,59.81
2022-07-25T01:12:18.250Z,59.83
2022-07-25T01:13:34.640Z,59.83
2022-07-25T01:14:51.064Z,59.83
2022-07-25T01:16:07.496Z,59.83
2022-07-25T01:17:23.962Z,59.81
2022-07-25T01:18:40.619Z,59.81
2022-07-25T01:19:59.002Z,59.81
2022-07-25T01:21:15.365Z,59.81
2022-07-25T01:22:31.966Z,59.81
2022-07-25T01:23:49.126Z,59.83
2022-07-25T01:25:05.795Z,59.81
2022-07-25T01:26:22.175Z,59.81
2022-07-25T01:27:38.576Z,59.83
2022-07-25T01:28:54.948Z,59.81
2022-07-25T01:30:11.360Z,59.81
2022-07-25T01:31:28.085Z,59.83
2022-07-25T01:32:44.427Z,59.83
2022-07-25T01:34:00.801Z,59.81
2022-07-25T01:35:17.213Z,59.81
2022-07-25T01:36:33.589Z,59.83
2022-07-25T01:37:50.253Z,59.81
2022-07-25T01:39:06.653Z,59.81
2022-07-25T01:40:23.078Z,59.81
2022-07-25T01:41:39.443Z,59.81
2022-07-25T01:42:55.839Z,59.81
2022-07-25T01:44:12.560Z,59.81
2022-07-25T01:45:29.754Z,59.81
2022-07-25T01:46:46.171Z,59.81
2022-07-25T01:48:04.518Z,59.81
2022-07-25T01:49:20.945Z,59.81
2022-07-25T01:50:37.671Z,59.81
2022-07-25T01:51:54.037Z,59.81
2022-07-25T01:53:10.396Z,59.70
2022-07-25T01:54:26.786Z,59.81
2022-07-25T01:55:45.298Z,59.81
2022-07-25T01:57:01.962Z,59.81
2022-07-25T01:58:18.398Z,59.81
2022-07-25T01:59:34.859Z,59.81
2022-07-25T02:00:51.222Z,59.70
2022-07-25T02:02:07.614Z,59.70
2022-07-25T02:03:24.362Z,59.70
2022-07-25T02:04:40.788Z,59.70
2022-07-25T02:05:57.161Z,59.74
2022-07-25T02:07:13.542Z,59.70
2022-07-25T02:08:29.942Z,59.70
2022-07-25T02:09:46.864Z,59.70
2022-07-25T02:11:03.233Z,59.70
2022-07-25T02:12:20.606Z,59.70
2022-07-25T02:13:36.966Z,59.70
2022-07-25T02:14:53.369Z,59.70
2022-07-25T02:16:10.008Z,59.70
2022-07-25T02:17:28.455Z,59.70
2022-07-25T02:18:44.809Z,59.70
2022-07-25T02:20:01.209Z,59.70
2022-07-25T02:21:17.619Z,59.70
2022-07-25T02:22:34.288Z,59.70
2022-07-25T02:23:50.662Z,59.70
2022-07-25T02:25:07.043Z,59.70
2022-07-25T02:26:23.433Z,59.70
2022-07-25T02:27:39.819Z,59.70
2022-07-25T02:28:56.445Z,59.70
2022-07-25T02:30:12.831Z,59.70
2022-07-25T02:31:29.225Z,59.70
2022-07-25T02:32:45.615Z,59.70
2022-07-25T02:34:01.996Z,59.70
2022-07-25T02:35:18.713Z,59.70
2022-07-25T02:36:35.066Z,59.70
2022-07-25T02:37:51.465Z,59.70
2022-07-25T02:39:09.823Z,59.70
2022-07-25T02:40:26.198Z,59.70
2022-07-25T02:41:42.858Z,59.70
2022-07-25T02:42:59.249Z,59.70
2022-07-25T02:44:15.639Z,59.70
2022-07-25T02:45:32.031Z,59.70
2022-07-25T02:46:50.611Z,59.70
2022-07-25T02:48:07.332Z,59.70
2022-07-25T02:49:23.711Z,59.61
2022-07-25T02:50:40.092Z,59.70
2022-07-25T02:51:56.453Z,59.61
2022-07-25T02:53:12.863Z,59.61
2022-07-25T02:54:29.527Z,59.61
2022-07-25T02:55:45.882Z,59.70
2022-07-25T02:57:02.245Z,59.61
2022-07-25T02:58:18.665Z,59.61
2022-07-25T02:59:35.037Z,59.61
2022-07-25T03:00:51.737Z,59.61
2022-07-25T03:02:08.067Z,59.61
2022-07-25T03:03:24.478Z,59.61
2022-07-25T03:04:41.848Z,59.61
2022-07-25T03:05:58.239Z,59.61
2022-07-25T03:07:14.917Z,59.61
2022-07-25T03:08:31.320Z,59.61
2022-07-25T03:09:47.697Z,59.61
2022-07-25T03:11:04.088Z,59.61
2022-07-25T03:12:20.462Z,59.61
2022-07-25T03:13:37.153Z,59.61
2022-07-25T03:14:53.513Z,59.61
2022-07-25T03:16:09.930Z,59.61
2022-07-25T03:17:26.377Z,59.61
2022-07-25T03:18:42.754Z,59.61
2022-07-25T03:19:59.415Z,59.61
2022-07-25T03:21:15.817Z,59.61
2022-07-25T03:22:32.216Z,59.61
2022-07-25T03:23:52.414Z,59.61
2022-07-25T03:25:15.609Z,59.61
2022-07-25T03:26:32.485Z,59.61
2022-07-25T03:27:48.852Z,59.61
2022-07-25T03:29:07.188Z,59.61
2022-07-25T03:30:25.521Z,59.61
2022-07-25T03:31:41.984Z,59.61
2022-07-25T03:32:58.632Z,59.61
2022-07-25T03:34:16.976Z,59.61
2022-07-25T03:35:35.381Z,59.61
2022-07-25T03:36:51.765Z,59.61
2022-07-25T03:38:08.152Z,59.61
2022-07-25T03:39:24.823Z,59.61
2022-07-25T03:40:41.204Z,59.61
2022-07-25T03:41:57.613Z,59.61
2022-07-25T03:43:15.935Z,59.61
2022-07-25T03:44:32.364Z,59.61
2022-07-25T03:45:49.050Z,59.61
2022-07-25T03:47:07.399Z,59.61
2022-07-25T03:48:24.670Z,59.61
2022-07-25T03:49:41.049Z,59.61
2022-07-25T03:50:57.428Z,59.61
2022-07-25T03:52:14.139Z,59.61
2022-07-25T03:53:30.514Z,59.61
2022-07-25T03:54:48.896Z,59.61
2022-07-25T03:56:05.258Z,59.61
2022-07-25T03:57:23.115Z,59.61
2022-07-25T03:58:39.769Z,59.61
2022-07-25T03:59:56.165Z,59.61
2022-07-25T04:01:12.612Z,59.61
2022-07-25T04:02:29.095Z,59.61
2022-07-25T04:03:47.480Z,59.61
2022-07-25T04:05:04.153Z,59.61
2022-07-25T04:06:22.506Z,59.61
2022-07-25T04:07:40.871Z,59.61
2022-07-25T04:08:59.175Z,59.61
2022-07-25T04:10:17.547Z,59.61
2022-07-25T04:11:34.197Z,59.61
2022-07-25T04:12:52.517Z,59.61
2022-07-25T04:14:10.995Z,59.51
2022-07-25T04:15:27.379Z,59.51
2022-07-25T04:16:45.926Z,59.61
2022-07-25T04:18:02.610Z,59.61
2022-07-25T04:19:21.151Z,59.51
2022-07-25T04:20:37.592Z,59.61
2022-07-25T04:21:55.913Z,59.51
2022-07-25T04:23:12.293Z,59.51
2022-07-25T04:24:28.973Z,59.51
2022-07-25T04:25:47.403Z,59.51
2022-07-25T04:27:05.763Z,59.51
2022-07-25T04:28:24.085Z,59.61
2022-07-25T04:29:42.465Z,59.51
2022-07-25T04:31:01.093Z,59.61
2022-07-25T04:32:23.287Z,59.51
2022-07-25T04:33:42.026Z,59.51
2022-07-25T04:35:00.368Z,59.51
2022-07-25T04:36:17.719Z,59.51
2022-07-25T04:37:35.329Z,59.51
2022-07-25T04:38:52.689Z,59.51
2022-07-25T04:40:11.051Z,59.51
2022-07-25T04:41:29.409Z,59.51
2022-07-25T04:42:48.281Z,59.51
2022-07-25T04:44:06.286Z,59.51
2022-07-25T04:45:24.010Z,59.51
2022-07-25T04:46:41.142Z,59.41
2022-07-25T04:47:59.546Z,59.41
2022-07-25T04:49:18.045Z,59.31
2022-07-25T04:50:36.716Z,59.41
2022-07-25T04:51:55.066Z,59.41
2022-07-25T04:53:11.574Z,59.41
2022-07-25T04:54:29.971Z,59.41
2022-07-25T04:55:48.335Z,59.41
2022-07-25T04:57:05.014Z,59.41
2022-07-25T04:58:23.870Z,59.41
2022-07-25T04:59:42.228Z,59.41
2022-07-25T05:01:03.536Z,59.41
2022-07-25T05:02:20.872Z,59.41
2022-07-25T05:03:38.468Z,59.41
2022-07-25T05:04:57.489Z,59.41
2022-07-25T05:06:16.375Z,59.41
2022-07-25T05:07:34.244Z,59.31
2022-07-25T05:08:52.711Z,57.62
2022-07-25T05:10:12.657Z,56.42
2022-07-25T05:11:30.022Z,53.64
2022-07-25T05:12:49.665Z,54.33
2022-07-25T05:14:06.546Z,53.34
2022-07-25T05:15:23.299Z,52.94
2022-07-25T05:16:44.862Z,53.24
2022-07-25T05:18:01.346Z,52.62
2022-07-25T05:19:20.008Z,53.41
2022-07-25T05:20:38.367Z,52.32
2022-07-25T05:21:54.855Z,51.22
2022-07-25T05:23:11.695Z,51.42
2022-07-25T05:24:31.541Z,51.03
2022-07-25T05:25:50.035Z,51.32
2022-07-25T05:27:08.594Z,51.92
2022-07-25T05:28:26.954Z,52.00
2022-07-25T05:29:45.328Z,50.70
2022-07-25T05:31:03.881Z,51.60
2022-07-25T05:32:22.283Z,50.90
2022-07-25T05:33:43.353Z,50.60
2022-07-25T05:35:03.209Z,50.80
2022-07-25T05:36:21.045Z,50.20
2022-07-25T05:37:42.378Z,50.20
2022-07-25T05:39:01.839Z,50.20
2022-07-25T05:40:20.779Z,50.70
2022-07-25T05:41:38.426Z,50.20
2022-07-25T05:42:59.523Z,50.01
2022-07-25T05:44:18.079Z,50.01
2022-07-25T05:45:36.500Z,50.40
2022-07-25T05:46:54.985Z,50.31
2022-07-25T05:48:12.306Z,50.10
2022-07-25T05:49:30.239Z,50.08
2022-07-25T05:50:49.202Z,50.18
2022-07-25T05:52:12.919Z,50.58
2022-07-25T05:53:30.653Z,50.88
2022-07-25T05:54:50.354Z,50.08
2022-07-25T05:56:06.844Z,50.18
2022-07-25T05:57:24.192Z,50.08
2022-07-25T05:58:42.173Z,50.08
2022-07-25T06:00:02.699Z,49.98
2022-07-25T06:01:21.622Z,49.78
2022-07-25T06:02:39.475Z,50.08
2022-07-25T06:03:58.470Z,50.18
2022-07-25T06:05:16.826Z,50.08
2022-07-25T06:06:35.273Z,49.88
2022-07-25T06:07:52.616Z,49.29
2022-07-25T06:09:11.132Z,49.88
2022-07-25T06:10:28.632Z,49.88
2022-07-25T06:11:54.533Z,49.88
2022-07-25T06:13:10.425Z,49.78
2022-07-25T06:14:26.996Z,49.78
2022-07-25T06:15:46.123Z,49.66
2022-07-25T06:17:04.460Z,49.96
2022-07-25T06:18:24.062Z,49.86
2022-07-25T06:19:43.408Z,50.26
2022-07-25T06:21:00.123Z,50.18
2022-07-25T06:22:18.850Z,50.38
2022-07-25T06:23:40.204Z,50.28
2022-07-25T06:25:01.649Z,50.45
2022-07-25T06:26:19.075Z,50.65
2022-07-25T06:27:37.259Z,50.38
2022-07-25T06:28:54.195Z,50.45
2022-07-25T06:30:19.810Z,50.65
2022-07-25T06:31:37.421Z,50.85
2022-07-25T06:32:57.027Z,50.95
2022-07-25T06:34:14.464Z,51.07
2022-07-25T06:35:31.654Z,51.07
2022-07-25T06:36:48.270Z,51.28
2022-07-25T06:38:07.454Z,51.47
2022-07-25T06:39:24.882Z,51.47
2022-07-25T06:40:43.373Z,51.57
2022-07-25T06:42:00.258Z,51.67
2022-07-25T06:43:22.287Z,51.37
2022-07-25T06:44:44.259Z,51.87
2022-07-25T06:46:02.671Z,51.57
2022-07-25T06:47:31.729Z,51.65
2022-07-25T06:48:50.000Z,51.75
2022-07-25T06:50:11.329Z,51.95
2022-07-25T06:51:29.764Z,51.95
2022-07-25T06:52:50.314Z,52.04
2022-07-25T06:54:08.546Z,52.04
2022-07-25T06:55:26.345Z,52.14
2022-07-25T06:56:44.941Z,52.14
2022-07-25T06:58:04.710Z,51.84
2022-07-25T06:59:23.454Z,52.04
2022-07-25T07:00:43.145Z,51.84
2022-07-25T07:02:02.207Z,51.84
2022-07-25T07:03:22.460Z,51.84
2022-07-25T07:04:40.785Z,51.84
2022-07-25T07:06:00.927Z,51.95
2022-07-25T07:07:19.552Z,51.95
2022-07-25T07:08:37.104Z,52.04
2022-07-25T07:09:56.057Z,52.14
2022-07-25T07:11:14.648Z,52.24
2022-07-25T07:12:36.087Z,52.34
2022-07-25T07:13:57.271Z,52.44
2022-07-25T07:15:19.289Z,52.56
2022-07-25T07:16:36.827Z,52.56
2022-07-25T07:18:05.699Z,52.67
2022-07-25T07:19:23.194Z,52.76
2022-07-25T07:20:42.334Z,52.86
2022-07-25T07:21:58.993Z,52.86
2022-07-25T07:23:18.059Z,52.96
2022-07-25T07:24:42.911Z,52.96
2022-07-25T07:26:02.978Z,53.06
2022-07-25T07:27:20.956Z,53.06
2022-07-25T07:28:38.939Z,53.16
2022-07-25T07:30:00.931Z,53.16
2022-07-25T07:31:19.639Z,53.16
2022-07-25T07:32:38.975Z,53.26
2022-07-25T07:34:01.242Z,53.36
2022-07-25T07:35:17.977Z,53.36
2022-07-25T07:36:35.756Z,53.46
2022-07-25T07:37:53.255Z,53.46
2022-07-25T07:39:10.702Z,53.56
2022-07-25T07:40:29.698Z,53.56
2022-07-25T07:41:50.559Z,53.56
2022-07-25T07:43:09.349Z,53.76
2022-07-25T07:44:26.930Z,53.76
2022-07-25T07:45:43.398Z,53.66
2022-07-25T07:47:00.884Z,53.76
2022-07-25T07:48:18.399Z,53.86
2022-07-25T07:49:37.101Z,53.86
2022-07-25T07:50:53.823Z,53.86
2022-07-25T07:52:11.338Z,53.96
2022-07-25T07:53:30.413Z,53.96
2022-07-25T07:54:47.773Z,53.96
2022-07-25T07:56:08.910Z,53.96
2022-07-25T07:57:27.672Z,53.96
2022-07-25T07:58:47.273Z,53.96
2022-07-25T08:00:07.716Z,54.06
2022-07-25T08:01:37.824Z,54.06
2022-07-25T08:04:48.881Z,54.16
2022-07-25T08:06:05.864Z,54.06
2022-07-25T08:07:23.345Z,54.06
2022-07-25T08:08:40.742Z,54.25
2022-07-25T08:09:58.704Z,54.16
2022-07-25T08:11:17.076Z,54.25
2022-07-25T08:12:36.994Z,54.16
2022-07-25T08:13:55.267Z,54.25
2022-07-25T08:15:15.911Z,54.16
2022-07-25T08:16:33.283Z,54.06
2022-07-25T08:17:50.697Z,54.16
2022-07-25T08:19:08.245Z,54.16
2022-07-25T08:20:38.074Z,54.16
2022-07-25T08:21:50.412Z,54.25
2022-07-25T08:23:09.112Z,54.25
2022-07-25T08:24:26.876Z,54.25
2022-07-25T08:25:44.757Z,54.25
2022-07-25T08:27:03.916Z,54.35
2022-07-25T08:28:21.558Z,54.35
2022-07-25T08:29:40.223Z,54.35
2022-07-25T08:30:58.685Z,54.35
2022-07-25T08:34:08.511Z,54.35
2022-07-25T08:35:31.630Z,54.35
2022-07-25T08:38:39.672Z,54.35
2022-07-25T08:39:58.262Z,54.35
2022-07-25T08:41:16.605Z,54.35
2022-07-25T08:42:34.044Z,54.35
2022-07-25T08:43:53.824Z,54.35
2022-07-25T08:45:11.683Z,54.46
2022-07-25T08:46:29.062Z,54.46
2022-07-25T08:47:47.416Z,54.46
2022-07-25T08:49:05.827Z,54.46
2022-07-25T08:50:24.167Z,54.46
2022-07-25T08:51:42.265Z,54.55
2022-07-25T08:53:30.277Z,54.55
2022-07-25T08:54:23.803Z,54.55
2022-07-25T08:55:43.172Z,54.55
2022-07-25T08:57:01.518Z,54.55
2022-07-25T08:58:19.118Z,54.55
2022-07-25T08:59:36.470Z,54.65
2022-07-25T09:00:54.899Z,54.65
2022-07-25T09:02:14.246Z,54.65
2022-07-25T09:03:40.840Z,54.65
2022-07-25T09:04:59.221Z,54.65
2022-07-25T09:06:23.193Z,54.65
2022-07-25T09:07:40.633Z,54.65
2022-07-25T09:08:59.427Z,54.65
2022-07-25T09:10:16.978Z,54.65
2022-07-25T09:11:34.521Z,54.65
2022-07-25T09:12:52.402Z,54.75
2022-07-25T09:14:10.214Z,54.75
2022-07-25T09:15:30.486Z,54.75
2022-07-25T09:16:49.660Z,54.75
2022-07-25T09:18:10.642Z,54.75
2022-07-25T09:19:28.465Z,54.75
2022-07-25T09:20:45.418Z,54.75
2022-07-25T09:23:54.004Z,54.75
2022-07-25T09:25:11.303Z,54.85
2022-07-25T09:26:30.949Z,54.85
2022-07-25T09:27:48.353Z,54.85
2022-07-25T09:29:06.015Z,54.85
2022-07-25T09:30:22.664Z,54.85
2022-07-25T09:31:40.264Z,54.85
2022-07-25T09:32:57.618Z,54.95
2022-07-25T09:34:15.559Z,54.95
2022-07-25T09:35:35.340Z,54.95
2022-07-25T09:36:51.959Z,54.95
2022-07-25T09:38:11.332Z,54.95
2022-07-25T09:39:28.953Z,54.95
2022-07-25T09:40:48.361Z,54.95
2022-07-25T09:42:04.934Z,55.05
2022-07-25T09:43:24.413Z,55.05
2022-07-25T09:44:43.341Z,55.05
2022-07-25T09:46:01.920Z,55.05
2022-07-25T09:47:20.363Z,55.05
2022-07-25T09:48:39.469Z,55.05
2022-07-25T09:49:56.053Z,55.25
2022-07-25T09:51:12.852Z,55.15
2022-07-25T09:52:33.701Z,55.25
2022-07-25T09:53:56.938Z,55.25
2022-07-25T09:55:21.290Z,55.15
2022-07-25T09:56:38.649Z,55.25
2022-07-25T09:57:57.631Z,55.25
2022-07-25T09:59:16.586Z,55.35
2022-07-25T10:00:35.938Z,55.25
2022-07-25T10:01:54.953Z,55.25
2022-07-25T10:03:13.116Z,55.35
2022-07-25T10:04:31.775Z,55.35
2022-07-25T10:05:49.503Z,55.35
2022-07-25T10:07:09.092Z,55.35
2022-07-25T10:08:26.549Z,55.44
2022-07-25T10:09:45.796Z,55.35
2022-07-25T10:11:06.259Z,55.35
2022-07-25T10:12:25.673Z,55.44
2022-07-25T10:13:45.131Z,55.44
2022-07-25T10:15:03.153Z,55.44
2022-07-25T10:16:21.621Z,55.55
2022-07-25T10:17:41.839Z,55.55
2022-07-25T10:19:01.925Z,55.55
2022-07-25T10:20:23.606Z,55.65
2022-07-25T10:21:43.143Z,55.55
2022-07-25T10:23:04.250Z,55.55
2022-07-25T10:24:27.055Z,55.65
2022-07-25T10:25:48.729Z,55.65
2022-07-25T10:27:06.600Z,55.65
2022-07-25T10:30:19.292Z,55.55
2022-07-25T10:31:37.324Z,55.65
2022-07-25T10:32:59.673Z,55.65
2022-07-25T10:34:19.489Z,55.65
2022-07-25T10:35:39.447Z,55.65
2022-07-25T10:36:56.923Z,55.74
2022-07-25T10:38:13.809Z,55.74
2022-07-25T10:41:21.744Z,55.74
2022-07-25T10:42:40.287Z,55.74
2022-07-25T10:43:57.685Z,55.65
2022-07-25T10:47:07.301Z,55.65
2022-07-25T10:48:25.701Z,55.65
2022-07-25T10:50:13.581Z,55.65
2022-07-25T10:51:07.198Z,55.74
2022-07-25T10:52:28.016Z,55.85
2022-07-25T10:53:46.647Z,55.85
2022-07-25T10:55:05.047Z,55.85
2022-07-25T10:56:24.416Z,55.85
2022-07-25T10:58:07.874Z,55.94
2022-07-25T10:59:06.441Z,55.94
2022-07-25T11:00:27.645Z,55.94
2022-07-25T11:01:51.971Z,55.85
2022-07-25T11:03:15.963Z,55.94
2022-07-25T11:04:36.274Z,55.85
2022-07-25T11:08:04.459Z,55.85
2022-07-25T11:09:12.874Z,55.85
2022-07-25T11:10:32.913Z,55.94
2022-07-25T11:11:51.419Z,55.94
2022-07-25T11:13:09.034Z,56.04
2022-07-25T11:14:29.277Z,55.94
2022-07-25T11:15:49.196Z,56.04
2022-07-25T11:17:14.247Z,56.04
2022-07-25T11:18:34.713Z,56.04
2022-07-25T11:19:53.067Z,56.14
2022-07-25T11:21:11.408Z,56.14
2022-07-25T11:22:29.553Z,56.14
2022-07-25T11:23:46.888Z,56.14
2022-07-25T11:25:05.768Z,56.14
2022-07-25T11:26:23.094Z,56.24
2022-07-25T11:27:40.453Z,56.14
2022-07-25T11:28:59.570Z,56.14
2022-07-25T11:30:17.931Z,56.24
2022-07-25T11:31:36.331Z,56.14
2022-07-25T11:32:55.981Z,56.14
2022-07-25T11:34:15.101Z,56.14
2022-07-25T11:35:33.747Z,56.34
2022-07-25T11:36:51.484Z,56.24
2022-07-25T11:38:08.804Z,56.24
2022-07-25T11:39:26.135Z,56.34
2022-07-25T11:40:45.116Z,56.34
2022-07-25T11:42:03.105Z,56.34
2022-07-25T11:43:21.945Z,56.34
2022-07-25T11:44:42.887Z,56.34
2022-07-25T11:46:03.044Z,56.34
2022-07-25T11:47:20.381Z,56.44
2022-07-25T11:48:39.586Z,56.44
2022-07-25T11:49:58.929Z,56.44
2022-07-25T11:51:18.716Z,56.44
2022-07-25T11:52:38.006Z,56.44
2022-07-25T11:53:56.843Z,56.54
2022-07-25T11:55:15.921Z,56.44
2022-07-25T11:56:43.377Z,56.44
2022-07-25T11:57:57.933Z,56.44
2022-07-25T11:59:15.266Z,56.44
2022-07-25T12:00:32.842Z,56.54
2022-07-25T12:01:50.646Z,56.64
2022-07-25T12:03:12.105Z,56.64
2022-07-25T12:04:33.706Z,56.64
2022-07-25T12:05:51.267Z,57.14
2022-07-25T12:07:09.616Z,56.84
2022-07-25T12:08:27.210Z,56.84
2022-07-25T12:09:46.098Z,56.74
2022-07-25T12:11:04.411Z,56.74
2022-07-25T12:12:22.750Z,56.74
2022-07-25T12:13:40.078Z,56.74
2022-07-25T12:14:57.735Z,56.84
2022-07-25T12:16:15.111Z,56.84
2022-07-25T12:17:32.491Z,56.84
2022-07-25T12:18:51.342Z,56.84
2022-07-25T12:20:10.960Z,56.84
2022-07-25T12:21:29.338Z,56.84
2022-07-25T12:22:46.704Z,56.84
2022-07-25T12:24:04.034Z,56.84
2022-07-25T12:25:21.377Z,57.04
2022-07-25T12:26:39.775Z,57.14
2022-07-25T12:27:57.437Z,57.04
2022-07-25T12:29:15.782Z,57.24
2022-07-25T12:30:33.191Z,57.14
2022-07-25T12:31:51.570Z,57.01
2022-07-25T12:33:08.904Z,57.04
2022-07-25T12:34:26.520Z,57.01
2022-07-25T12:35:44.892Z,57.11
2022-07-25T12:37:03.219Z,57.01
2022-07-25T12:38:21.836Z,57.11
2022-07-25T12:39:40.621Z,57.11
2022-07-25T12:40:59.702Z,57.11
2022-07-25T12:42:17.023Z,57.11
2022-07-25T12:43:34.374Z,57.11
2022-07-25T12:44:52.693Z,57.31
2022-07-25T12:46:11.052Z,57.31
2022-07-25T12:47:28.704Z,57.21
2022-07-25T12:48:46.108Z,57.21
2022-07-25T12:50:03.433Z,57.21
2022-07-25T12:51:21.866Z,57.43
2022-07-25T12:52:40.966Z,57.64
2022-07-25T12:54:01.089Z,57.60
2022-07-25T12:55:19.339Z,57.60
2022-07-25T12:56:39.147Z,57.51
2022-07-25T12:57:58.164Z,57.60
2022-07-25T12:59:15.521Z,57.60
2022-07-25T13:00:33.672Z,57.60
2022-07-25T13:01:51.276Z,57.90
2022-07-25T13:03:08.957Z,58.20
2022-07-25T13:04:27.347Z,57.81
2022-07-25T13:05:45.835Z,57.70
2022-07-25T13:07:03.226Z,57.60
2022-07-25T13:08:20.614Z,57.60
2022-07-25T13:09:37.960Z,57.60
2022-07-25T13:10:59.620Z,57.60
2022-07-25T13:12:18.310Z,57.70
2022-07-25T13:13:35.706Z,57.70
2022-07-25T13:14:53.197Z,57.81
2022-07-25T13:16:12.114Z,58.00
2022-07-25T13:17:30.449Z,57.81
2022-07-25T13:18:49.134Z,57.70
2022-07-25T13:20:06.512Z,57.60
2022-07-25T13:21:23.889Z,57.60
2022-07-25T13:22:44.153Z,57.60
2022-07-25T13:24:02.967Z,57.60
2022-07-25T13:25:20.703Z,57.60
2022-07-25T13:26:39.697Z,57.51
2022-07-25T13:27:59.983Z,57.51
2022-07-25T13:29:20.338Z,57.60
2022-07-25T13:30:37.735Z,57.51
2022-07-25T13:31:55.661Z,57.51
2022-07-25T13:33:13.026Z,57.60
2022-07-25T13:34:30.654Z,57.51
2022-07-25T13:35:49.002Z,57.60
2022-07-25T13:37:07.418Z,57.60
2022-07-25T13:38:26.579Z,57.51
2022-07-25T13:39:45.353Z,57.41
2022-07-25T13:41:03.531Z,57.41
2022-07-25T13:42:23.416Z,57.41
2022-07-25T13:43:41.756Z,57.31
2022-07-25T13:44:59.436Z,57.21
2022-07-25T13:46:18.296Z,57.21
2022-07-25T13:47:35.602Z,57.21
2022-07-25T13:48:54.088Z,57.11
2022-07-25T13:50:11.940Z,57.11
2022-07-25T13:51:30.554Z,57.11
2022-07-25T13:52:49.005Z,57.11
2022-07-25T13:54:08.581Z,57.01
2022-07-25T13:55:27.556Z,57.01
2022-07-25T13:56:47.026Z,57.01
2022-07-25T13:58:04.739Z,57.01
2022-07-25T13:59:23.469Z,56.91
2022-07-25T14:00:40.847Z,56.91
2022-07-25T14:01:59.293Z,56.91
2022-07-25T14:03:16.600Z,56.91
2022-07-25T14:04:34.731Z,56.81
2022-07-25T14:05:55.141Z,56.81
2022-07-25T14:07:13.469Z,56.81
2022-07-25T14:08:31.336Z,56.81
2022-07-25T14:09:50.523Z,56.91
2022-07-25T14:11:09.281Z,56.81
2022-07-25T14:12:27.093Z,56.81
2022-07-25T14:13:45.482Z,56.71
2022-07-25T14:15:03.133Z,56.81
2022-07-25T14:16:20.463Z,56.81
2022-07-25T14:17:39.074Z,56.81
2022-07-25T14:18:56.586Z,56.81
2022-07-25T14:20:15.447Z,56.81
2022-07-25T14:21:34.007Z,56.81
2022-07-25T14:22:51.308Z,56.81
2022-07-25T14:24:08.947Z,56.81
2022-07-25T14:25:27.297Z,56.71
2022-07-25T14:26:45.663Z,56.81
2022-07-25T14:28:03.950Z,56.81
2022-07-25T14:29:24.864Z,56.81
2022-07-25T14:30:44.940Z,56.81
2022-07-25T14:32:03.391Z,56.81
2022-07-25T14:33:21.733Z,56.81
2022-07-25T14:34:40.103Z,56.81
2022-07-25T14:35:57.686Z,56.81
2022-07-25T14:37:16.063Z,56.81
2022-07-25T14:38:34.364Z,56.81
2022-07-25T14:39:51.696Z,56.81
2022-07-25T14:41:13.097Z,56.81
2022-07-25T14:42:32.290Z,56.91
2022-07-25T14:43:50.686Z,56.91
2022-07-25T14:45:09.088Z,56.91
2022-07-25T14:46:27.468Z,56.91
2022-07-25T14:47:46.159Z,56.91
2022-07-25T14:49:05.033Z,56.91
2022-07-25T14:50:22.491Z,56.91
2022-07-25T14:51:40.840Z,57.01
2022-07-25T14:52:57.193Z,57.01
2022-07-25T14:54:13.851Z,56.91
2022-07-25T14:55:32.227Z,57.01
2022-07-25T14:56:50.542Z,57.01
2022-07-25T14:58:07.692Z,57.01
2022-07-25T14:59:26.017Z,57.01
2022-07-25T15:00:42.755Z,57.01
2022-07-25T15:02:01.117Z,57.01
2022-07-25T15:03:19.436Z,57.01
2022-07-25T15:04:37.791Z,57.01
2022-07-25T15:05:56.126Z,57.01
2022-07-25T15:07:12.798Z,57.01
2022-07-25T15:08:29.178Z,57.01
2022-07-25T15:09:47.501Z,57.01
2022-07-25T15:11:05.858Z,57.01
2022-07-25T15:12:23.159Z,57.01
2022-07-25T15:13:40.749Z,57.01
2022-07-25T15:14:58.189Z,57.01
2022-07-25T15:16:16.578Z,57.01
2022-07-25T15:17:34.343Z,57.01
2022-07-25T15:19:15.258Z,57.01
2022-07-25T15:20:15.832Z,57.01
2022-07-25T15:21:34.237Z,57.11
2022-07-25T15:22:51.534Z,57.21
2022-07-25T15:24:09.874Z,57.31
2022-07-25T15:26:00.176Z,57.21
2022-07-25T15:26:51.415Z,57.31
2022-07-25T15:28:09.727Z,57.21
2022-07-25T15:29:28.077Z,57.21
2022-07-25T15:30:45.367Z,57.21
2022-07-25T15:32:03.334Z,57.21
2022-07-25T15:33:20.029Z,57.21
2022-07-25T15:34:38.369Z,57.21
2022-07-25T15:35:56.692Z,57.21
2022-07-25T15:37:15.050Z,57.21
2022-07-25T15:38:33.380Z,57.21
2022-07-25T15:39:50.043Z,57.31
2022-07-25T15:41:06.391Z,57.31
2022-07-25T15:42:29.071Z,57.31
2022-07-25T15:43:47.774Z,57.31
2022-07-25T15:45:34.153Z,57.31
2022-07-25T15:46:29.435Z,57.34
2022-07-25T15:47:50.962Z,57.34
2022-07-25T15:49:09.952Z,57.31
2022-07-25T15:50:28.663Z,57.34
2022-07-25T15:51:47.894Z,57.43
2022-07-25T15:53:06.531Z,57.34
2022-07-25T15:54:29.260Z,57.43
2022-07-25T15:55:47.870Z,57.43
2022-07-25T15:57:06.201Z,57.43
2022-07-25T15:58:24.539Z,57.43
2022-07-25T15:59:41.191Z,57.43
2022-07-25T16:00:57.631Z,57.43
2022-07-25T16:02:15.972Z,57.43
2022-07-25T16:03:34.362Z,57.43
2022-07-25T16:04:52.682Z,57.43
2022-07-25T16:06:15.519Z,57.43
2022-07-25T16:07:34.523Z,57.53
2022-07-25T16:08:52.854Z,57.43
2022-07-25T16:10:11.178Z,57.53
2022-07-25T16:11:29.515Z,57.53
2022-07-25T16:12:48.115Z,57.53
2022-07-25T16:14:06.451Z,57.53
2022-07-25T16:15:24.757Z,57.53
2022-07-25T16:16:43.346Z,57.53
2022-07-25T16:18:02.983Z,57.53
2022-07-25T16:19:19.814Z,57.53
2022-07-25T16:20:38.120Z,57.53
2022-07-25T16:21:56.450Z,57.53
2022-07-25T16:23:12.851Z,57.53
2022-07-25T16:24:31.181Z,57.53
2022-07-25T16:25:49.773Z,57.53
2022-07-25T16:27:08.112Z,57.64
2022-07-25T16:28:26.525Z,57.53
2022-07-25T16:29:44.853Z,57.53
2022-07-25T16:31:03.347Z,57.53
2022-07-25T16:32:20.965Z,57.53
2022-07-25T16:33:39.456Z,57.64
2022-07-25T16:34:57.797Z,57.53
2022-07-25T16:36:16.108Z,57.53
2022-07-25T16:37:34.447Z,57.53
2022-07-25T16:38:53.049Z,57.64
2022-07-25T16:40:11.380Z,57.64
2022-07-25T16:41:29.687Z,57.64
2022-07-25T16:42:48.711Z,57.64
2022-07-25T16:44:07.050Z,57.64
2022-07-25T16:45:24.635Z,57.64
2022-07-25T16:46:43.035Z,57.64
2022-07-25T16:48:01.390Z,57.64
2022-07-25T16:49:19.771Z,57.64
2022-07-25T16:50:38.063Z,57.64
2022-07-25T16:51:54.727Z,57.64
2022-07-25T16:53:13.484Z,57.64
2022-07-25T16:54:31.818Z,57.64
2022-07-25T16:55:50.210Z,57.64
2022-07-25T16:57:08.485Z,57.64
2022-07-25T16:58:26.085Z,57.64
2022-07-25T16:59:44.520Z,57.64
2022-07-25T17:01:02.846Z,57.64
2022-07-25T17:02:22.994Z,57.64